sensor_id;sensor_type;location;lat;lon;timestamp;pressure;altitude;pressure_sealevel;temperature;humidity
75219;BME280;63801;49.414;19.474;2023-05-07T00:01:50;93856.19;;;11.02;75.54
75219;BME280;63801;49.414;19.474;2023-05-07T00:03:50;93854.53;;;10.97;75.30
75219;BME280;63801;49.414;19.474;2023-05-07T00:05:51;93848.22;;;10.93;75.70
75219;BME280;63801;49.414;19.474;2023-05-07T00:07:52;93848.50;;;10.88;75.63
75219;BME280;63801;49.414;19.474;2023-05-07T00:09:53;93842.59;;;10.82;75.97
75219;BME280;63801;49.414;19.474;2023-05-07T00:11:53;93843.63;;;10.78;76.23
75219;BME280;63801;49.414;19.474;2023-05-07T00:13:54;93840.84;;;10.74;76.52
75219;BME280;63801;49.414;19.474;2023-05-07T00:15:54;93840.41;;;10.72;76.43
75219;BME280;63801;49.414;19.474;2023-05-07T00:17:55;93833.59;;;10.63;76.36
75219;BME280;63801;49.414;19.474;2023-05-07T00:19:55;93843.34;;;10.67;76.19
75219;BME280;63801;49.414;19.474;2023-05-07T00:21:56;93846.91;;;10.71;76.32
75219;BME280;63801;49.414;19.474;2023-05-07T00:23:57;93842.91;;;10.65;76.51
75219;BME280;63801;49.414;19.474;2023-05-07T00:25:57;93844.13;;;10.68;75.46
75219;BME280;63801;49.414;19.474;2023-05-07T00:27:57;93855.38;;;10.70;76.11
75219;BME280;63801;49.414;19.474;2023-05-07T00:30:02;93853.09;;;10.72;76.44
75219;BME280;63801;49.414;19.474;2023-05-07T00:32:03;93853.09;;;10.72;76.14
75219;BME280;63801;49.414;19.474;2023-05-07T00:34:03;93851.63;;;10.74;76.20
75219;BME280;63801;49.414;19.474;2023-05-07T00:36:04;93859.34;;;10.76;76.17
75219;BME280;63801;49.414;19.474;2023-05-07T00:38:04;93854.75;;;10.76;76.27
75219;BME280;63801;49.414;19.474;2023-05-07T00:40:05;93857.09;;;10.78;76.19
75219;BME280;63801;49.414;19.474;2023-05-07T00:42:07;93854.84;;;10.80;76.43
75219;BME280;63801;49.414;19.474;2023-05-07T00:44:08;93853.72;;;10.81;76.00
75219;BME280;63801;49.414;19.474;2023-05-07T00:46:08;93857.97;;;10.82;76.20
75219;BME280;63801;49.414;19.474;2023-05-07T00:48:10;93840.66;;;10.67;76.22
75219;BME280;63801;49.414;19.474;2023-05-07T00:50:10;93862.50;;;10.78;76.32
75219;BME280;63801;49.414;19.474;2023-05-07T00:52:16;93857.34;;;10.73;76.32
75219;BME280;63801;49.414;19.474;2023-05-07T00:54:17;93867.34;;;10.72;76.26
75219;BME280;63801;49.414;19.474;2023-05-07T00:56:17;93865.78;;;10.71;76.43
75219;BME280;63801;49.414;19.474;2023-05-07T00:58:19;93861.19;;;10.72;76.23
75219;BME280;63801;49.414;19.474;2023-05-07T01:00:20;93861.53;;;10.70;76.26
75219;BME280;63801;49.414;19.474;2023-05-07T01:02:21;93869.97;;;10.69;76.10
75219;BME280;63801;49.414;19.474;2023-05-07T01:04:21;93864.13;;;10.67;76.08
75219;BME280;63801;49.414;19.474;2023-05-07T01:06:23;93869.09;;;10.65;76.14
75219;BME280;63801;49.414;19.474;2023-05-07T01:08:24;93869.09;;;10.65;76.04
75219;BME280;63801;49.414;19.474;2023-05-07T01:10:27;93868.63;;;10.63;76.29
75219;BME280;63801;49.414;19.474;2023-05-07T01:12:30;93869.44;;;10.63;75.89
75219;BME280;63801;49.414;19.474;2023-05-07T01:14:31;93848.03;;;10.55;76.43
75219;BME280;63801;49.414;19.474;2023-05-07T01:16:33;93869.09;;;10.65;76.26
75219;BME280;63801;49.414;19.474;2023-05-07T01:18:33;93863.69;;;10.65;76.26
75219;BME280;63801;49.414;19.474;2023-05-07T01:20:33;93866.41;;;10.65;76.33
75219;BME280;63801;49.414;19.474;2023-05-07T01:22:35;93863.38;;;10.66;76.31
75219;BME280;63801;49.414;19.474;2023-05-07T01:24:38;93856.72;;;10.64;76.18
75219;BME280;63801;49.414;19.474;2023-05-07T01:26:39;93872.31;;;10.70;76.36
75219;BME280;63801;49.414;19.474;2023-05-07T01:28:39;93876.16;;;10.69;76.15
75219;BME280;63801;49.414;19.474;2023-05-07T01:30:41;93864.13;;;10.67;76.19
75219;BME280;63801;49.414;19.474;2023-05-07T01:34:46;93867.53;;;10.64;76.07
75219;BME280;63801;49.414;19.474;2023-05-07T01:36:48;93865.94;;;10.63;76.14
75219;BME280;63801;49.414;19.474;2023-05-07T01:38:49;93870.56;;;10.62;76.11
75219;BME280;63801;49.414;19.474;2023-05-07T01:40:50;93866.72;;;10.63;76.16
75219;BME280;63801;49.414;19.474;2023-05-07T01:42:50;93877.50;;;10.63;76.43
75219;BME280;63801;49.414;19.474;2023-05-07T01:44:51;93872.13;;;10.63;76.22
75219;BME280;63801;49.414;19.474;2023-05-07T01:46:52;93871.34;;;10.63;76.37
75219;BME280;63801;49.414;19.474;2023-05-07T01:48:53;93871.00;;;10.64;76.18
75219;BME280;63801;49.414;19.474;2023-05-07T01:50:55;93872.56;;;10.65;76.31
75219;BME280;63801;49.414;19.474;2023-05-07T01:52:55;93867.19;;;10.65;76.22
75219;BME280;63801;49.414;19.474;2023-05-07T01:54:55;93872.22;;;10.67;76.11
75219;BME280;63801;49.414;19.474;2023-05-07T01:56:56;93869.88;;;10.65;76.06
75219;BME280;63801;49.414;19.474;2023-05-07T01:58:57;93871.34;;;10.63;76.07
75219;BME280;63801;49.414;19.474;2023-05-07T02:00:57;93865.44;;;10.57;76.16
75219;BME280;63801;49.414;19.474;2023-05-07T02:02:57;93871.16;;;10.56;76.12
75219;BME280;63801;49.414;19.474;2023-05-07T02:04:59;93870.63;;;10.50;76.11
75219;BME280;63801;49.414;19.474;2023-05-07T02:06:59;93871.84;;;10.53;76.23
75219;BME280;63801;49.414;19.474;2023-05-07T02:08:59;93872.53;;;10.50;76.12
75219;BME280;63801;49.414;19.474;2023-05-07T02:11:00;93886.00;;;10.50;76.11
75219;BME280;63801;49.414;19.474;2023-05-07T02:13:00;93881.75;;;10.49;76.12
75219;BME280;63801;49.414;19.474;2023-05-07T02:15:02;93876.25;;;10.45;76.23
75219;BME280;63801;49.414;19.474;2023-05-07T02:17:02;93875.81;;;10.43;76.04
75219;BME280;63801;49.414;19.474;2023-05-07T02:19:03;93876.16;;;10.42;76.22
75219;BME280;63801;49.414;19.474;2023-05-07T02:21:03;93877.28;;;10.41;76.20
75219;BME280;63801;49.414;19.474;2023-05-07T02:23:03;93880.66;;;10.38;76.19
75219;BME280;63801;49.414;19.474;2023-05-07T02:25:04;93874.06;;;10.35;76.10
75219;BME280;63801;49.414;19.474;2023-05-07T02:27:04;93874.75;;;10.32;76.06
75219;BME280;63801;49.414;19.474;2023-05-07T02:29:05;93872.75;;;10.29;76.04
75219;BME280;63801;49.414;19.474;2023-05-07T02:31:05;93874.97;;;10.27;76.12
75219;BME280;63801;49.414;19.474;2023-05-07T02:33:06;93861.66;;;10.18;76.33
75219;BME280;63801;49.414;19.474;2023-05-07T02:35:08;93868.72;;;10.23;76.11
75219;BME280;63801;49.414;19.474;2023-05-07T02:37:08;93865.59;;;10.21;76.22
75219;BME280;63801;49.414;19.474;2023-05-07T02:39:08;93867.91;;;10.22;76.18
75219;BME280;63801;49.414;19.474;2023-05-07T02:41:09;93873.31;;;10.22;76.19
75219;BME280;63801;49.414;19.474;2023-05-07T02:43:09;93866.38;;;10.21;76.17
75219;BME280;63801;49.414;19.474;2023-05-07T02:45:10;93861.78;;;10.22;76.28
75219;BME280;63801;49.414;19.474;2023-05-07T02:47:10;93869.41;;;10.20;76.03
75219;BME280;63801;49.414;19.474;2023-05-07T02:49:13;93868.63;;;10.19;76.23
75219;BME280;63801;49.414;19.474;2023-05-07T02:51:14;93866.13;;;10.14;76.11
75219;BME280;63801;49.414;19.474;2023-05-07T02:53:14;93869.72;;;10.18;76.16
75219;BME280;63801;49.414;19.474;2023-05-07T02:55:14;93873.13;;;10.15;76.23
75219;BME280;63801;49.414;19.474;2023-05-07T02:57:15;93870.09;;;10.17;75.94
75219;BME280;63801;49.414;19.474;2023-05-07T02:59:15;93866.63;;;10.16;76.29
75219;BME280;63801;49.414;19.474;2023-05-07T03:01:15;93862.22;;;10.12;75.62
75219;BME280;63801;49.414;19.474;2023-05-07T03:03:16;93861.34;;;10.08;75.97
75219;BME280;63801;49.414;19.474;2023-05-07T03:05:17;93867.75;;;10.03;75.97
75219;BME280;63801;49.414;19.474;2023-05-07T03:07:17;93873.38;;;9.98;75.93
75219;BME280;63801;49.414;19.474;2023-05-07T03:09:18;93880.91;;;9.92;76.15
75219;BME280;63801;49.414;19.474;2023-05-07T03:11:18;93879.22;;;9.88;75.98
75219;BME280;63801;49.414;19.474;2023-05-07T03:13:18;93872.94;;;9.84;76.19
75219;BME280;63801;49.414;19.474;2023-05-07T03:15:19;93872.41;;;9.78;76.17
75219;BME280;63801;49.414;19.474;2023-05-07T03:17:21;93884.88;;;9.71;76.15
75219;BME280;63801;49.414;19.474;2023-05-07T03:19:22;93877.72;;;9.63;76.15
75219;BME280;63801;49.414;19.474;2023-05-07T03:21:22;93881.09;;;9.60;76.29
75219;BME280;63801;49.414;19.474;2023-05-07T03:23:22;93887.13;;;9.57;76.30
75219;BME280;63801;49.414;19.474;2023-05-07T03:25:23;93882.09;;;9.55;76.36
75219;BME280;63801;49.414;19.474;2023-05-07T03:27:23;93878.06;;;9.49;76.46
75219;BME280;63801;49.414;19.474;2023-05-07T03:29:23;93884.22;;;9.50;76.46
75219;BME280;63801;49.414;19.474;2023-05-07T03:31:24;93881.06;;;9.47;76.55
75219;BME280;63801;49.414;19.474;2023-05-07T03:33:24;93889.59;;;9.50;76.73
75219;BME280;63801;49.414;19.474;2023-05-07T03:35:25;93894.31;;;9.53;76.76
75219;BME280;63801;49.414;19.474;2023-05-07T03:37:25;93899.03;;;9.56;76.77
75219;BME280;63801;49.414;19.474;2023-05-07T03:39:26;93898.34;;;9.59;76.41
75219;BME280;63801;49.414;19.474;2023-05-07T03:41:26;93892.28;;;9.62;76.69
75219;BME280;63801;49.414;19.474;2023-05-07T03:43:26;93901.25;;;9.66;76.68
75219;BME280;63801;49.414;19.474;2023-05-07T03:45:27;93900.22;;;9.70;76.70
75219;BME280;63801;49.414;19.474;2023-05-07T03:47:27;93898.78;;;9.73;76.67
75219;BME280;63801;49.414;19.474;2023-05-07T03:49:27;93894.41;;;9.68;76.76
75219;BME280;63801;49.414;19.474;2023-05-07T03:51:28;93906.28;;;9.79;76.71
75219;BME280;63801;49.414;19.474;2023-05-07T03:53:28;93910.66;;;9.84;76.72
75219;BME280;63801;49.414;19.474;2023-05-07T03:55:28;93906.50;;;9.86;76.54
75219;BME280;63801;49.414;19.474;2023-05-07T03:57:29;93908.50;;;9.89;76.61
75219;BME280;63801;49.414;19.474;2023-05-07T03:59:29;93912.41;;;9.92;76.49
75219;BME280;63801;49.414;19.474;2023-05-07T04:01:30;93908.19;;;9.91;76.53
75219;BME280;63801;49.414;19.474;2023-05-07T04:03:30;93909.72;;;9.92;76.60
75219;BME280;63801;49.414;19.474;2023-05-07T04:05:31;93902.78;;;9.91;76.42
75219;BME280;63801;49.414;19.474;2023-05-07T04:07:31;93910.53;;;9.92;76.59
75219;BME280;63801;49.414;19.474;2023-05-07T04:09:31;93917.16;;;9.95;76.52
75219;BME280;63801;49.414;19.474;2023-05-07T04:11:32;93914.88;;;9.97;76.52
75219;BME280;63801;49.414;19.474;2023-05-07T04:13:32;93920.72;;;9.99;76.57
75219;BME280;63801;49.414;19.474;2023-05-07T04:15:32;93918.94;;;10.03;76.62
75219;BME280;63801;49.414;19.474;2023-05-07T04:17:33;93923.19;;;10.04;76.59
75219;BME280;63801;49.414;19.474;2023-05-07T04:19:33;93922.03;;;10.05;76.36
75219;BME280;63801;49.414;19.474;2023-05-07T04:21:34;93919.03;;;10.07;76.40
75219;BME280;63801;49.414;19.474;2023-05-07T04:23:34;93929.09;;;10.10;76.50
75219;BME280;63801;49.414;19.474;2023-05-07T04:25:34;93929.22;;;10.13;76.43
75219;BME280;63801;49.414;19.474;2023-05-07T04:27:35;93931.56;;;10.15;76.44
75219;BME280;63801;49.414;19.474;2023-05-07T04:29:36;93929.78;;;10.19;76.48
75219;BME280;63801;49.414;19.474;2023-05-07T04:31:36;93934.50;;;10.22;76.54
75219;BME280;63801;49.414;19.474;2023-05-07T04:33:36;93935.41;;;10.26;76.59
75219;BME280;63801;49.414;19.474;2023-05-07T04:35:37;93938.19;;;10.29;76.54
75219;BME280;63801;49.414;19.474;2023-05-07T04:37:37;93939.06;;;10.33;76.37
75219;BME280;63801;49.414;19.474;2023-05-07T04:39:37;93939.16;;;10.37;76.55
75219;BME280;63801;49.414;19.474;2023-05-07T04:41:38;93944.66;;;10.41;76.25
75219;BME280;63801;49.414;19.474;2023-05-07T04:43:38;93943.53;;;10.42;76.42
75219;BME280;63801;49.414;19.474;2023-05-07T04:45:38;93947.81;;;10.43;76.38
75219;BME280;63801;49.414;19.474;2023-05-07T04:47:41;93946.22;;;10.42;76.42
75219;BME280;63801;49.414;19.474;2023-05-07T04:49:41;93950.84;;;10.41;76.41
75219;BME280;63801;49.414;19.474;2023-05-07T04:51:42;93952.31;;;10.39;76.39
75219;BME280;63801;49.414;19.474;2023-05-07T04:53:43;93950.94;;;10.45;76.49
75219;BME280;63801;49.414;19.474;2023-05-07T04:55:44;93953.63;;;10.45;76.31
75219;BME280;63801;49.414;19.474;2023-05-07T04:57:45;93963.28;;;10.46;76.55
75219;BME280;63801;49.414;19.474;2023-05-07T04:59:45;93967.09;;;10.45;76.37
75219;BME280;63801;49.414;19.474;2023-05-07T05:01:46;93970.50;;;10.42;76.28
75219;BME280;63801;49.414;19.474;2023-05-07T05:03:46;93961.50;;;10.38;76.08
75219;BME280;63801;49.414;19.474;2023-05-07T05:05:49;93969.50;;;10.34;76.21
75219;BME280;63801;49.414;19.474;2023-05-07T05:07:49;93962.88;;;10.31;76.15
75219;BME280;63801;49.414;19.474;2023-05-07T05:09:51;93970.94;;;10.31;76.17
75219;BME280;63801;49.414;19.474;2023-05-07T05:11:51;93964.69;;;10.27;76.23
75219;BME280;63801;49.414;19.474;2023-05-07T05:13:52;93971.22;;;10.26;76.24
75219;BME280;63801;49.414;19.474;2023-05-07T05:15:52;93970.44;;;10.26;76.21
75219;BME280;63801;49.414;19.474;2023-05-07T05:17:52;93959.66;;;10.26;76.30
75219;BME280;63801;49.414;19.474;2023-05-07T05:19:53;93966.59;;;10.27;76.18
75219;BME280;63801;49.414;19.474;2023-05-07T05:21:53;93970.53;;;10.29;76.39
75219;BME280;63801;49.414;19.474;2023-05-07T05:23:53;93974.09;;;10.33;76.15
75219;BME280;63801;49.414;19.474;2023-05-07T05:25:57;93978.47;;;10.38;76.38
75219;BME280;63801;49.414;19.474;2023-05-07T05:27:57;93982.84;;;10.43;76.41
75219;BME280;63801;49.414;19.474;2023-05-07T05:29:58;93979.13;;;10.47;76.41
75219;BME280;63801;49.414;19.474;2023-05-07T05:31:58;93978.09;;;10.52;76.66
75219;BME280;63801;49.414;19.474;2023-05-07T05:33:58;93974.72;;;10.55;76.26
75219;BME280;63801;49.414;19.474;2023-05-07T05:35:59;93977.50;;;10.58;76.41
75219;BME280;63801;49.414;19.474;2023-05-07T05:37:59;93976.84;;;10.61;76.14
75219;BME280;63801;49.414;19.474;2023-05-07T05:39:59;93983.91;;;10.66;76.24
75219;BME280;63801;49.414;19.474;2023-05-07T05:42:00;93989.38;;;10.69;76.14
75219;BME280;63801;49.414;19.474;2023-05-07T05:44:00;93987.56;;;10.73;76.21
75219;BME280;63801;49.414;19.474;2023-05-07T05:46:00;93987.91;;;10.72;76.15
75219;BME280;63801;49.414;19.474;2023-05-07T05:48:01;93996.63;;;10.81;76.22
75219;BME280;63801;49.414;19.474;2023-05-07T05:50:01;93989.78;;;10.84;76.16
75219;BME280;63801;49.414;19.474;2023-05-07T05:52:01;93993.00;;;10.89;76.11
75219;BME280;63801;49.414;19.474;2023-05-07T05:54:02;93995.47;;;10.94;76.13
75219;BME280;63801;49.414;19.474;2023-05-07T05:56:02;93995.22;;;10.99;76.11
75219;BME280;63801;49.414;19.474;2023-05-07T05:58:03;93994.97;;;11.04;76.04
75219;BME280;63801;49.414;19.474;2023-05-07T06:00:03;93995.41;;;11.06;75.89
75219;BME280;63801;49.414;19.474;2023-05-07T06:02:04;93981.22;;;11.09;75.87
75219;BME280;63801;49.414;19.474;2023-05-07T06:04:05;93985.94;;;11.12;75.83
75219;BME280;63801;49.414;19.474;2023-05-07T06:06:05;93986.38;;;11.14;75.84
75219;BME280;63801;49.414;19.474;2023-05-07T06:08:06;93981.88;;;11.18;75.72
75219;BME280;63801;49.414;19.474;2023-05-07T06:10:06;93980.03;;;11.22;75.69
75219;BME280;63801;49.414;19.474;2023-05-07T06:12:07;93976.84;;;11.33;75.80
75219;BME280;63801;49.414;19.474;2023-05-07T06:14:07;93959.75;;;11.28;75.54
75219;BME280;63801;49.414;19.474;2023-05-07T06:16:07;93980.22;;;11.61;75.40
75219;BME280;63801;49.414;19.474;2023-05-07T06:18:08;93988.09;;;11.82;75.18
75219;BME280;63801;49.414;19.474;2023-05-07T06:20:08;93984.97;;;12.30;74.24
75219;BME280;63801;49.414;19.474;2023-05-07T06:22:09;93984.47;;;12.44;73.56
75219;BME280;63801;49.414;19.474;2023-05-07T06:24:09;93991.06;;;12.43;72.73
75219;BME280;63801;49.414;19.474;2023-05-07T06:26:10;93986.59;;;12.35;72.58
75219;BME280;63801;49.414;19.474;2023-05-07T06:28:10;93996.41;;;12.24;72.42
75219;BME280;63801;49.414;19.474;2023-05-07T06:30:11;93993.81;;;12.11;72.51
75219;BME280;63801;49.414;19.474;2023-05-07T06:32:15;93991.50;;;11.94;72.77
75219;BME280;63801;49.414;19.474;2023-05-07T06:34:17;94002.66;;;11.93;72.62
75219;BME280;63801;49.414;19.474;2023-05-07T06:36:17;94002.28;;;11.79;72.39
75219;BME280;63801;49.414;19.474;2023-05-07T06:38:17;94001.25;;;11.67;72.57
75219;BME280;63801;49.414;19.474;2023-05-07T06:40:18;94010.63;;;11.58;72.61
75219;BME280;63801;49.414;19.474;2023-05-07T06:42:18;94009.31;;;11.52;72.89
75219;BME280;63801;49.414;19.474;2023-05-07T06:44:18;94010.81;;;11.49;73.11
75219;BME280;63801;49.414;19.474;2023-05-07T06:46:19;94006.03;;;11.58;73.77
75219;BME280;63801;49.414;19.474;2023-05-07T06:48:19;94012.31;;;11.78;73.80
75219;BME280;63801;49.414;19.474;2023-05-07T06:50:26;94006.13;;;11.93;73.02
75219;BME280;63801;49.414;19.474;2023-05-07T06:52:26;94008.31;;;12.03;72.81
75219;BME280;63801;49.414;19.474;2023-05-07T06:54:26;94011.88;;;12.07;72.70
75219;BME280;63801;49.414;19.474;2023-05-07T06:56:27;94011.50;;;12.09;72.36
75219;BME280;63801;49.414;19.474;2023-05-07T06:58:27;94003.41;;;12.09;72.03
75219;BME280;63801;49.414;19.474;2023-05-07T07:00:27;94003.66;;;12.04;71.92
75219;BME280;63801;49.414;19.474;2023-05-07T07:02:28;93999.75;;;12.01;72.23
75219;BME280;63801;49.414;19.474;2023-05-07T07:04:28;93999.75;;;12.01;72.30
75219;BME280;63801;49.414;19.474;2023-05-07T07:06:28;93999.72;;;12.17;73.06
75219;BME280;63801;49.414;19.474;2023-05-07T07:08:29;94004.50;;;12.58;72.71
75219;BME280;63801;49.414;19.474;2023-05-07T07:10:30;94001.06;;;12.96;71.95
75219;BME280;63801;49.414;19.474;2023-05-07T07:12:30;94005.16;;;13.48;71.19
75219;BME280;63801;49.414;19.474;2023-05-07T07:14:30;94008.66;;;13.71;70.46
75219;BME280;63801;49.414;19.474;2023-05-07T07:16:31;94015.47;;;13.84;70.12
75219;BME280;63801;49.414;19.474;2023-05-07T07:18:31;94015.94;;;13.90;69.56
75219;BME280;63801;49.414;19.474;2023-05-07T07:20:32;94015.47;;;13.84;69.81
75219;BME280;63801;49.414;19.474;2023-05-07T07:22:32;94015.31;;;13.77;69.19
75219;BME280;63801;49.414;19.474;2023-05-07T07:24:32;94016.00;;;13.71;69.40
75219;BME280;63801;49.414;19.474;2023-05-07T07:26:33;94014.22;;;13.59;69.45
75219;BME280;63801;49.414;19.474;2023-05-07T07:28:33;94014.34;;;13.43;69.39
75219;BME280;63801;49.414;19.474;2023-05-07T07:30:33;94022.75;;;13.38;69.29
75219;BME280;63801;49.414;19.474;2023-05-07T07:32:34;94024.97;;;13.33;69.58
75219;BME280;63801;49.414;19.474;2023-05-07T07:34:34;94023.28;;;13.25;69.03
75219;BME280;63801;49.414;19.474;2023-05-07T07:36:35;94016.16;;;13.17;68.92
75219;BME280;63801;49.414;19.474;2023-05-07T07:38:35;94005.47;;;13.04;69.05
75219;BME280;63801;49.414;19.474;2023-05-07T07:40:36;94018.63;;;13.06;69.37
75219;BME280;63801;49.414;19.474;2023-05-07T07:42:36;94020.91;;;13.04;69.20
75219;BME280;63801;49.414;19.474;2023-05-07T07:44:36;94019.41;;;13.06;69.26
75219;BME280;63801;49.414;19.474;2023-05-07T07:46:37;94022.91;;;13.07;68.75
75219;BME280;63801;49.414;19.474;2023-05-07T07:48:37;94035.25;;;13.04;68.45
75219;BME280;63801;49.414;19.474;2023-05-07T07:50:38;94022.00;;;12.99;68.55
75219;BME280;63801;49.414;19.474;2023-05-07T07:52:38;94025.81;;;12.98;68.62
75219;BME280;63801;49.414;19.474;2023-05-07T07:54:38;94030.44;;;12.98;68.41
75219;BME280;63801;49.414;19.474;2023-05-07T07:56:39;94026.53;;;12.95;68.33
75219;BME280;63801;49.414;19.474;2023-05-07T07:58:39;94012.28;;;12.79;68.75
75219;BME280;63801;49.414;19.474;2023-05-07T08:00:39;94022.34;;;12.79;68.58
75219;BME280;63801;49.414;19.474;2023-05-07T08:02:40;94023.81;;;12.76;68.32
75219;BME280;63801;49.414;19.474;2023-05-07T08:04:40;94026.38;;;12.69;68.29
75219;BME280;63801;49.414;19.474;2023-05-07T08:06:42;94028.56;;;12.64;68.35
75219;BME280;63801;49.414;19.474;2023-05-07T08:08:42;94025.00;;;12.59;68.50
75219;BME280;63801;49.414;19.474;2023-05-07T08:10:43;94023.78;;;12.57;68.79
75219;BME280;63801;49.414;19.474;2023-05-07T08:12:43;94034.59;;;12.57;68.56
75219;BME280;63801;49.414;19.474;2023-05-07T08:14:44;94037.31;;;12.57;68.58
75219;BME280;63801;49.414;19.474;2023-05-07T08:16:44;94031.03;;;12.53;68.53
75219;BME280;63801;49.414;19.474;2023-05-07T08:18:45;94034.19;;;12.55;68.61
75219;BME280;63801;49.414;19.474;2023-05-07T08:20:46;94028.91;;;12.62;68.72
75219;BME280;63801;49.414;19.474;2023-05-07T08:22:47;94036.50;;;12.72;68.92
75219;BME280;63801;49.414;19.474;2023-05-07T08:24:47;94032.44;;;12.82;68.29
75219;BME280;63801;49.414;19.474;2023-05-07T08:26:47;94036.78;;;13.05;68.80
75219;BME280;63801;49.414;19.474;2023-05-07T08:28:48;94037.94;;;13.43;67.56
75219;BME280;63801;49.414;19.474;2023-05-07T08:30:48;94041.09;;;13.68;66.72
75219;BME280;63801;49.414;19.474;2023-05-07T08:32:48;94045.69;;;13.86;66.50
75219;BME280;63801;49.414;19.474;2023-05-07T08:34:49;94045.19;;;14.04;65.25
75219;BME280;63801;49.414;19.474;2023-05-07T08:36:49;94048.03;;;14.11;64.90
75219;BME280;63801;49.414;19.474;2023-05-07T08:38:49;94041.88;;;14.14;64.77
75219;BME280;63801;49.414;19.474;2023-05-07T08:40:50;94045.78;;;14.16;65.12
75219;BME280;63801;49.414;19.474;2023-05-07T08:42:52;94045.47;;;14.21;64.92
75219;BME280;63801;49.414;19.474;2023-05-07T08:44:56;94045.22;;;14.30;65.01
75219;BME280;63801;49.414;19.474;2023-05-07T08:46:58;94038.38;;;14.36;65.08
75219;BME280;63801;49.414;19.474;2023-05-07T08:48:59;94041.31;;;14.50;64.73
75219;BME280;63801;49.414;19.474;2023-05-07T08:50:59;94040.47;;;14.46;64.16
75219;BME280;63801;49.414;19.474;2023-05-07T08:53:00;94051.75;;;14.48;64.31
75219;BME280;63801;49.414;19.474;2023-05-07T08:55:02;94051.75;;;14.48;64.47
75219;BME280;63801;49.414;19.474;2023-05-07T08:57:02;94049.47;;;14.50;64.26
75219;BME280;63801;49.414;19.474;2023-05-07T08:59:03;94053.31;;;14.49;63.85
75219;BME280;63801;49.414;19.474;2023-05-07T09:01:07;94061.81;;;14.48;63.85
75219;BME280;63801;49.414;19.474;2023-05-07T09:03:08;94062.53;;;14.45;63.85
75219;BME280;63801;49.414;19.474;2023-05-07T09:05:12;94050.91;;;14.44;64.02
75219;BME280;63801;49.414;19.474;2023-05-07T09:07:13;94051.63;;;14.41;64.05
75219;BME280;63801;49.414;19.474;2023-05-07T09:09:17;94057.22;;;14.52;64.08
75219;BME280;63801;49.414;19.474;2023-05-07T09:11:22;94063.84;;;14.54;63.57
75219;BME280;63801;49.414;19.474;2023-05-07T09:13:22;94040.78;;;14.41;63.24
75219;BME280;63801;49.414;19.474;2023-05-07T09:15:23;94066.25;;;14.59;63.25
75219;BME280;63801;49.414;19.474;2023-05-07T09:17:23;94065.88;;;14.61;62.98
75219;BME280;63801;49.414;19.474;2023-05-07T09:19:24;94069.03;;;14.63;62.59
75219;BME280;63801;49.414;19.474;2023-05-07T09:21:25;94058.81;;;14.56;62.61
75219;BME280;63801;49.414;19.474;2023-05-07T09:23:25;94075.22;;;14.63;62.42
75219;BME280;63801;49.414;19.474;2023-05-07T09:25:31;94074.81;;;14.61;62.61
75219;BME280;63801;49.414;19.474;2023-05-07T09:27:31;94080.19;;;14.58;62.63
75219;BME280;63801;49.414;19.474;2023-05-07T09:29:32;94071.22;;;14.54;62.47
75219;BME280;63801;49.414;19.474;2023-05-07T09:31:41;94069.59;;;14.49;62.42
75219;BME280;63801;49.414;19.474;2023-05-07T09:33:41;94067.47;;;14.39;61.90
75219;BME280;63801;49.414;19.474;2023-05-07T09:35:41;94084.94;;;14.38;61.85
75219;BME280;63801;49.414;19.474;2023-05-07T09:37:42;94078.50;;;14.27;61.97
75219;BME280;63801;49.414;19.474;2023-05-07T09:39:44;94086.16;;;14.21;62.01
75219;BME280;63801;49.414;19.474;2023-05-07T09:41:48;94082.91;;;14.12;61.91
75219;BME280;63801;49.414;19.474;2023-05-07T09:43:53;94083.63;;;14.09;62.24
75219;BME280;63801;49.414;19.474;2023-05-07T09:45:54;94084.31;;;14.03;62.40
75219;BME280;63801;49.414;19.474;2023-05-07T09:47:56;94087.31;;;13.98;62.28
75219;BME280;63801;49.414;19.474;2023-05-07T09:49:59;94090.25;;;13.89;62.23
75219;BME280;63801;49.414;19.474;2023-05-07T09:52:00;94086.16;;;13.76;62.20
75219;BME280;63801;49.414;19.474;2023-05-07T09:54:02;94080.41;;;13.58;62.22
75219;BME280;63801;49.414;19.474;2023-05-07T09:56:04;94095.88;;;13.58;62.63
75219;BME280;63801;49.414;19.474;2023-05-07T09:58:06;94104.28;;;13.53;62.63
75219;BME280;63801;49.414;19.474;2023-05-07T10:00:07;94108.00;;;13.44;62.70
75219;BME280;63801;49.414;19.474;2023-05-07T10:02:09;94098.25;;;13.40;63.11
75219;BME280;63801;49.414;19.474;2023-05-07T10:04:13;94101.34;;;13.42;63.03
75219;BME280;63801;49.414;19.474;2023-05-07T10:06:14;94107.84;;;13.37;62.81
75219;BME280;63801;49.414;19.474;2023-05-07T10:08:15;94099.94;;;13.29;62.79
75219;BME280;63801;49.414;19.474;2023-05-07T10:10:17;94109.19;;;13.28;62.89
75219;BME280;63801;49.414;19.474;2023-05-07T10:12:21;94107.56;;;13.23;63.27
75219;BME280;63801;49.414;19.474;2023-05-07T10:14:21;94119.16;;;13.24;63.21
75219;BME280;63801;49.414;19.474;2023-05-07T10:16:22;94112.13;;;13.19;63.16
75219;BME280;63801;49.414;19.474;2023-05-07T10:18:24;94105.78;;;13.12;63.25
75219;BME280;63801;49.414;19.474;2023-05-07T10:20:30;94114.06;;;13.03;63.30
75219;BME280;63801;49.414;19.474;2023-05-07T10:22:37;94115.47;;;12.97;63.41
75219;BME280;63801;49.414;19.474;2023-05-07T10:24:38;94112.69;;;12.93;63.63
75219;BME280;63801;49.414;19.474;2023-05-07T10:26:42;94114.19;;;12.91;63.64
75219;BME280;63801;49.414;19.474;2023-05-07T10:28:47;94118.38;;;12.88;63.94
75219;BME280;63801;49.414;19.474;2023-05-07T10:31:13;94121.59;;;12.94;63.59
75219;BME280;63801;49.414;19.474;2023-05-07T10:33:20;94124.94;;;12.87;63.23
75219;BME280;63801;49.414;19.474;2023-05-07T10:35:30;94117.38;;;12.77;63.19